createdAt,value
2018-06-10T00:00:59.063Z,8.90
2018-06-10T00:01:59.164Z,9.00
2018-06-10T00:02:59.265Z,8.80
2018-06-10T00:03:59.379Z,8.90
2018-06-10T00:04:59.482Z,8.60
2018-06-10T00:05:59.580Z,9.00
2018-06-10T00:06:59.681Z,8.10
2018-06-10T00:07:59.793Z,8.60
2018-06-10T00:08:59.903Z,8.60
2018-06-10T00:10:00.008Z,9.00
2018-06-10T00:11:00.105Z,9.20
2018-06-10T00:12:00.204Z,8.40
2018-06-10T00:13:00.312Z,9.10
2018-06-10T00:14:00.399Z,9.50
2018-06-10T00:15:00.501Z,9.70
2018-06-10T00:16:00.603Z,9.40
2018-06-10T00:17:00.701Z,9.30
2018-06-10T00:18:00.815Z,9.30
2018-06-10T00:19:00.919Z,9.40
2018-06-10T00:20:01.023Z,9.30
2018-06-10T00:21:01.116Z,9.60
2018-06-10T00:22:01.229Z,9.30
2018-06-10T00:23:01.330Z,8.60
2018-06-10T00:24:01.433Z,8.70
2018-06-10T00:25:01.537Z,9.40
2018-06-10T00:26:01.638Z,9.80
2018-06-10T00:27:01.746Z,10.00
2018-06-10T00:28:01.836Z,9.40
2018-06-10T00:29:01.947Z,8.90
2018-06-10T00:30:02.051Z,9.30
2018-06-10T00:31:02.152Z,9.40
2018-06-10T00:32:02.254Z,9.50
2018-06-10T00:33:02.357Z,9.30
2018-06-10T00:34:02.459Z,9.00
2018-06-10T00:35:02.543Z,9.80
2018-06-10T00:36:02.665Z,9.00
2018-06-10T00:37:02.765Z,9.60
2018-06-10T00:38:02.876Z,10.20
2018-06-10T00:39:02.969Z,9.60
2018-06-10T00:40:03.070Z,9.50
2018-06-10T00:41:03.173Z,9.70
2018-06-10T00:42:03.277Z,10.50
2018-06-10T00:43:03.377Z,9.60
2018-06-10T00:44:03.479Z,9.80
2018-06-10T00:45:03.581Z,10.50
2018-06-10T00:46:03.682Z,9.70
2018-06-10T00:47:03.786Z,9.60
2018-06-10T00:48:03.887Z,9.90
2018-06-10T00:49:03.990Z,10.00
2018-06-10T00:50:04.090Z,9.90
2018-06-10T00:51:04.194Z,9.80
2018-06-10T00:52:04.297Z,10.20
2018-06-10T00:53:04.398Z,10.10
2018-06-10T00:54:04.497Z,10.10
2018-06-10T00:55:04.597Z,9.50
2018-06-10T00:56:04.698Z,9.90
2018-06-10T00:57:04.797Z,9.30
2018-06-10T00:58:04.898Z,10.00
2018-06-10T00:59:04.998Z,10.60
2018-06-10T01:00:05.103Z,10.00
2018-06-10T01:01:05.202Z,10.40
2018-06-10T01:02:05.303Z,10.10
2018-06-10T01:03:05.417Z,9.60
2018-06-10T01:04:05.504Z,9.80
2018-06-10T01:05:05.611Z,9.30
2018-06-10T01:06:05.709Z,10.20
2018-06-10T01:07:05.810Z,9.80
2018-06-10T01:08:05.913Z,9.20
2018-06-10T01:09:06.042Z,9.20
2018-06-10T01:10:06.120Z,9.40
2018-06-10T01:11:06.221Z,9.60
2018-06-10T01:12:06.322Z,9.00
2018-06-10T01:13:06.425Z,9.30
2018-06-10T01:14:06.527Z,9.60
2018-06-10T01:15:06.628Z,9.60
2018-06-10T01:16:06.760Z,9.90
2018-06-10T01:17:06.832Z,9.70
2018-06-10T01:18:06.935Z,9.40
2018-06-10T01:19:07.034Z,9.40
2018-06-10T01:20:07.133Z,9.20
2018-06-10T01:21:07.238Z,9.30
2018-06-10T01:22:07.342Z,9.40
2018-06-10T01:23:07.440Z,9.50
2018-06-10T01:24:07.542Z,9.30
2018-06-10T01:25:07.644Z,9.80
2018-06-10T01:26:07.745Z,9.80
2018-06-10T01:27:07.846Z,9.80
2018-06-10T01:28:07.946Z,9.40
2018-06-10T01:29:08.048Z,10.10
2018-06-10T01:30:08.149Z,9.50
2018-06-10T01:31:08.260Z,9.90
2018-06-10T01:32:08.353Z,9.80
2018-06-10T01:33:08.459Z,10.30
2018-06-10T01:34:08.558Z,10.20
2018-06-10T01:35:08.662Z,9.60
2018-06-10T01:36:08.763Z,9.30
2018-06-10T01:37:08.889Z,9.80
2018-06-10T01:38:08.965Z,9.80
2018-06-10T01:39:09.064Z,10.20
2018-06-10T01:40:09.165Z,10.10
2018-06-10T01:41:09.268Z,9.80
2018-06-10T01:42:09.369Z,10.00
2018-06-10T01:43:09.472Z,10.10
2018-06-10T01:44:09.573Z,10.50
2018-06-10T01:45:09.667Z,9.60
2018-06-10T01:46:09.780Z,10.60
2018-06-10T01:47:09.881Z,9.70
2018-06-10T01:48:09.982Z,10.20
2018-06-10T01:49:10.083Z,9.90
2018-06-10T01:50:10.184Z,10.20
2018-06-10T01:51:10.285Z,10.40
2018-06-10T01:52:10.381Z,10.40
2018-06-10T01:53:10.493Z,10.00
2018-06-10T01:54:10.594Z,10.00
2018-06-10T01:55:10.694Z,10.70
2018-06-10T01:56:10.799Z,10.20
2018-06-10T01:57:10.900Z,10.00
2018-06-10T01:58:11.003Z,10.30
2018-06-10T01:59:11.103Z,10.10
2018-06-10T02:00:11.207Z,10.20
2018-06-10T02:01:11.310Z,10.20
2018-06-10T02:02:11.412Z,10.30
2018-06-10T02:03:11.510Z,9.90
2018-06-10T02:04:11.621Z,10.30
2018-06-10T02:05:11.723Z,10.40
2018-06-10T02:06:11.822Z,11.30
2018-06-10T02:07:11.924Z,10.40
2018-06-10T02:08:12.948Z,11.10
2018-06-10T02:09:12.956Z,11.20
2018-06-10T02:10:12.227Z,10.40
2018-06-10T02:11:12.861Z,10.50
2018-06-10T02:12:12.609Z,9.90
2018-06-10T02:13:12.705Z,9.90
2018-06-10T02:14:13.034Z,9.90
2018-06-10T02:15:12.905Z,10.50
2018-06-10T02:16:12.901Z,10.30
2018-06-10T02:17:13.137Z,10.20
2018-06-10T02:18:13.164Z,10.00
2018-06-10T02:19:13.178Z,10.40
2018-06-10T02:20:13.425Z,11.00
2018-06-10T02:21:13.590Z,10.20
2018-06-10T02:22:13.494Z,10.80
2018-06-10T02:23:13.929Z,10.50
2018-06-10T02:24:13.723Z,10.30
2018-06-10T02:25:13.818Z,10.40
2018-06-10T02:26:13.944Z,9.80
2018-06-10T02:27:14.137Z,10.30
2018-06-10T02:28:14.148Z,10.70
2018-06-10T02:29:14.726Z,10.30
2018-06-10T02:30:14.357Z,9.80
2018-06-10T02:31:14.626Z,10.60
2018-06-10T02:32:14.843Z,10.00
2018-06-10T02:33:14.753Z,9.80
2018-06-10T02:34:14.897Z,9.80
2018-06-10T02:35:14.955Z,9.50
2018-06-10T02:36:15.189Z,9.90
2018-06-10T02:37:15.084Z,9.70
2018-06-10T02:38:15.200Z,9.50
2018-06-10T02:39:15.310Z,9.80
2018-06-10T02:40:15.453Z,9.60
2018-06-10T02:41:15.818Z,10.00
2018-06-10T02:42:15.682Z,9.70
2018-06-10T02:43:15.873Z,10.50
2018-06-10T02:44:16.269Z,9.90
2018-06-10T02:45:16.035Z,10.10
2018-06-10T02:46:16.265Z,9.90
2018-06-10T02:47:16.309Z,10.00
2018-06-10T02:48:16.390Z,9.80
2018-06-10T02:49:16.369Z,9.40
2018-06-10T02:50:16.485Z,9.60
2018-06-10T02:51:16.547Z,9.80
2018-06-10T02:52:16.644Z,9.70
2018-06-10T02:53:16.889Z,9.90
2018-06-10T02:54:16.878Z,9.80
2018-06-10T02:55:17.119Z,10.70
2018-06-10T02:56:17.213Z,10.10
2018-06-10T02:57:17.249Z,10.70
2018-06-10T02:58:17.245Z,10.30
2018-06-10T02:59:17.638Z,9.80
2018-06-10T03:00:17.647Z,10.40
2018-06-10T03:01:17.577Z,10.30
2018-06-10T03:02:17.629Z,10.00
2018-06-10T03:03:17.644Z,10.20
2018-06-10T03:04:18.013Z,10.10
2018-06-10T03:05:17.920Z,10.30
2018-06-10T03:06:18.102Z,10.10
2018-06-10T03:07:18.195Z,9.80
2018-06-10T03:08:18.195Z,10.60
2018-06-10T03:09:18.304Z,9.50
2018-06-10T03:10:18.399Z,10.50
2018-06-10T03:11:18.521Z,9.70
2018-06-10T03:12:18.630Z,10.10
2018-06-10T03:13:18.766Z,9.90
2018-06-10T03:14:18.874Z,10.20
2018-06-10T03:15:19.052Z,9.90
2018-06-10T03:16:19.039Z,10.30
2018-06-10T03:17:19.238Z,10.20
2018-06-10T03:18:19.203Z,10.00
2018-06-10T03:19:19.437Z,10.50
2018-06-10T03:20:19.443Z,10.20
2018-06-10T03:21:19.559Z,10.20
2018-06-10T03:22:19.660Z,10.50
2018-06-10T03:23:19.932Z,10.30
2018-06-10T03:24:19.895Z,10.40
2018-06-10T03:25:20.020Z,10.60
2018-06-10T03:26:20.181Z,10.20
2018-06-10T03:27:20.170Z,10.50
2018-06-10T03:28:20.343Z,9.70
2018-06-10T03:29:20.397Z,10.80
2018-06-10T03:30:20.402Z,11.10
2018-06-10T03:31:20.519Z,10.70
2018-06-10T03:32:20.629Z,10.80
2018-06-10T03:33:20.731Z,10.30
2018-06-10T03:34:20.857Z,10.20
2018-06-10T03:35:21.091Z,10.30
2018-06-10T03:36:21.130Z,10.70
2018-06-10T03:37:21.253Z,10.40
2018-06-10T03:38:21.429Z,10.90
2018-06-10T03:39:21.468Z,10.90
2018-06-10T03:40:21.569Z,10.70
2018-06-10T03:41:21.681Z,10.30
2018-06-10T03:42:21.821Z,10.30
2018-06-10T03:43:21.882Z,10.70
2018-06-10T03:44:22.038Z,11.30
2018-06-10T03:45:22.165Z,10.40
2018-06-10T03:46:22.260Z,10.20
2018-06-10T03:47:22.420Z,11.00
2018-06-10T03:48:22.668Z,10.90
2018-06-10T03:49:22.716Z,11.40
2018-06-10T03:50:22.945Z,11.10
2018-06-10T03:51:22.866Z,11.60
2018-06-10T03:52:22.985Z,11.50
2018-06-10T03:53:23.079Z,10.80
2018-06-10T03:54:23.188Z,11.40
2018-06-10T03:55:23.347Z,11.30
2018-06-10T03:56:23.460Z,11.30
2018-06-10T03:57:23.580Z,12.20
2018-06-10T03:58:23.688Z,10.80
2018-06-10T03:59:23.800Z,10.40
2018-06-10T04:00:23.939Z,10.90
2018-06-10T04:01:24.030Z,11.60
2018-06-10T04:02:24.155Z,10.90
2018-06-10T04:03:24.261Z,11.00
2018-06-10T04:04:24.341Z,11.20
2018-06-10T04:05:24.603Z,10.40
2018-06-10T04:06:24.685Z,10.80
2018-06-10T04:07:24.666Z,10.50
2018-06-10T04:08:24.826Z,10.90
2018-06-10T04:09:24.899Z,11.20
2018-06-10T04:10:24.909Z,11.10
2018-06-10T04:11:25.023Z,10.50
2018-06-10T04:12:25.170Z,11.30
2018-06-10T04:13:25.282Z,10.80
2018-06-10T04:14:25.537Z,11.00
2018-06-10T04:15:25.585Z,10.50
2018-06-10T04:16:25.733Z,10.70
2018-06-10T04:17:25.830Z,11.00
2018-06-10T04:18:25.944Z,10.90
2018-06-10T04:19:26.071Z,10.00
2018-06-10T04:20:26.162Z,10.50
2018-06-10T04:21:26.299Z,11.00
2018-06-10T04:22:26.351Z,10.80
2018-06-10T04:23:26.507Z,10.50
2018-06-10T04:24:26.612Z,10.40
2018-06-10T04:25:26.703Z,10.80
2018-06-10T04:26:26.815Z,11.60
2018-06-10T04:27:26.919Z,10.50
2018-06-10T04:28:27.130Z,10.90
2018-06-10T04:29:27.114Z,10.90
2018-06-10T04:30:27.225Z,11.30
2018-06-10T04:31:27.315Z,10.80
2018-06-10T04:32:27.450Z,11.30
2018-06-10T04:33:27.626Z,10.80
2018-06-10T04:34:27.707Z,10.90
2018-06-10T04:35:27.898Z,10.90
2018-06-10T04:36:27.999Z,11.60
2018-06-10T04:37:28.096Z,10.50
2018-06-10T04:38:28.205Z,11.20
2018-06-10T04:39:28.302Z,11.10
2018-06-10T04:40:28.407Z,10.80
2018-06-10T04:41:28.518Z,10.70
2018-06-10T04:42:28.617Z,10.50
2018-06-10T04:43:28.721Z,10.30
2018-06-10T04:44:28.815Z,10.00
2018-06-10T04:45:28.926Z,10.60
2018-06-10T04:46:29.018Z,10.30
2018-06-10T04:47:29.132Z,11.10
2018-06-10T04:48:29.233Z,10.70
2018-06-10T04:49:29.339Z,10.60
2018-06-10T04:50:29.430Z,10.60
2018-06-10T04:51:29.543Z,10.50
2018-06-10T04:52:29.644Z,10.80
2018-06-10T04:53:29.748Z,11.00
2018-06-10T04:54:29.849Z,11.10
2018-06-10T04:55:29.953Z,11.20
2018-06-10T04:56:30.058Z,10.50
2018-06-10T04:57:30.161Z,10.80
2018-06-10T04:58:30.268Z,10.40
2018-06-10T04:59:30.367Z,10.20
2018-06-10T05:00:30.467Z,10.60
2018-06-10T05:01:30.572Z,10.70
2018-06-10T05:02:30.676Z,10.60
2018-06-10T05:03:30.779Z,11.40
2018-06-10T05:04:30.877Z,10.40
2018-06-10T05:05:30.980Z,10.70
2018-06-10T05:06:31.079Z,10.70
2018-06-10T05:07:31.182Z,11.10
2018-06-10T05:08:31.281Z,11.00
2018-06-10T05:09:31.383Z,10.80
2018-06-10T05:10:31.490Z,10.80
2018-06-10T05:11:31.590Z,10.40
2018-06-10T05:12:31.685Z,10.60
2018-06-10T05:13:31.788Z,10.30
2018-06-10T05:14:31.888Z,10.70
2018-06-10T05:15:31.993Z,11.10
2018-06-10T05:16:32.095Z,10.90
2018-06-10T05:17:32.195Z,11.10
2018-06-10T05:18:32.297Z,10.70
2018-06-10T05:19:32.397Z,10.60
2018-06-10T05:20:32.505Z,10.50
2018-06-10T05:21:32.608Z,10.80
2018-06-10T05:22:32.707Z,10.50
2018-06-10T05:23:32.813Z,10.60
2018-06-10T05:24:32.914Z,10.80
2018-06-10T05:25:33.015Z,11.00
2018-06-10T05:26:33.117Z,10.90
2018-06-10T05:27:33.217Z,10.90
2018-06-10T05:28:33.320Z,11.50
2018-06-10T05:29:33.421Z,11.70
2018-06-10T05:30:33.523Z,11.40
2018-06-10T05:31:33.625Z,11.10
2018-06-10T05:32:33.726Z,10.50
2018-06-10T05:33:33.826Z,10.60
2018-06-10T05:34:33.928Z,11.30
2018-06-10T05:35:34.033Z,11.30
2018-06-10T05:36:34.135Z,10.90
2018-06-10T05:37:34.238Z,11.00
2018-06-10T05:38:34.341Z,10.80
2018-06-10T05:39:34.443Z,10.30
2018-06-10T05:40:34.546Z,10.70
2018-06-10T05:41:34.646Z,11.00
2018-06-10T05:42:34.748Z,10.90
2018-06-10T05:43:34.851Z,11.10
2018-06-10T05:44:34.954Z,9.80
2018-06-10T05:45:35.057Z,10.70
2018-06-10T05:46:35.155Z,10.10
2018-06-10T05:47:35.286Z,10.60
2018-06-10T05:48:35.359Z,10.80
2018-06-10T05:49:35.464Z,11.40
2018-06-10T05:50:35.565Z,11.40
2018-06-10T05:51:35.670Z,10.70
2018-06-10T05:52:35.774Z,10.50
2018-06-10T05:53:35.875Z,11.40
2018-06-10T05:54:35.977Z,11.30
2018-06-10T05:55:36.081Z,11.20
2018-06-10T05:56:36.183Z,11.20
2018-06-10T05:57:36.287Z,11.30
2018-06-10T05:58:36.390Z,11.90
2018-06-10T05:59:36.494Z,11.30
2018-06-10T06:00:36.595Z,11.20
2018-06-10T06:01:36.696Z,11.50
2018-06-10T06:02:36.798Z,11.20
2018-06-10T06:03:36.901Z,11.70
2018-06-10T06:04:37.001Z,12.00
2018-06-10T06:05:37.104Z,12.10
2018-06-10T06:06:37.206Z,11.50
2018-06-10T06:07:37.303Z,11.80
2018-06-10T06:08:37.404Z,11.50
2018-06-10T06:09:37.505Z,11.80
2018-06-10T06:10:37.609Z,11.30
2018-06-10T06:11:37.711Z,11.10
2018-06-10T06:12:37.813Z,11.30
2018-06-10T06:13:37.914Z,10.50
2018-06-10T06:14:38.014Z,10.60
2018-06-10T06:15:38.113Z,11.50
2018-06-10T06:16:38.217Z,11.40
2018-06-10T06:17:38.323Z,11.30
2018-06-10T06:18:38.421Z,11.90
2018-06-10T06:19:38.524Z,11.00
2018-06-10T06:20:38.628Z,11.10
2018-06-10T06:21:38.728Z,11.80
2018-06-10T06:22:38.824Z,11.00
2018-06-10T06:23:38.932Z,11.20
2018-06-10T06:24:39.028Z,11.20
2018-06-10T06:25:39.131Z,10.60
2018-06-10T06:26:39.235Z,11.00
2018-06-10T06:27:39.336Z,10.80
2018-06-10T06:28:39.435Z,11.40
2018-06-10T06:29:39.534Z,11.10
2018-06-10T06:30:39.636Z,10.60
2018-06-10T06:31:39.737Z,11.60
2018-06-10T06:32:39.836Z,11.30
2018-06-10T06:33:39.937Z,10.80
2018-06-10T06:34:40.040Z,10.70
2018-06-10T06:35:40.139Z,10.90
2018-06-10T06:36:40.243Z,10.40
2018-06-10T06:37:40.345Z,11.00
2018-06-10T06:38:40.447Z,10.90
2018-06-10T06:39:40.549Z,10.70
2018-06-10T06:40:40.652Z,11.10
2018-06-10T06:41:40.754Z,11.00
2018-06-10T06:42:40.854Z,11.30
2018-06-10T06:43:40.953Z,13.70
2018-06-10T06:44:41.057Z,11.00
2018-06-10T06:45:41.161Z,11.70
2018-06-10T06:46:41.262Z,11.20
2018-06-10T06:47:41.364Z,11.70
2018-06-10T06:48:41.466Z,11.10
2018-06-10T06:49:41.567Z,11.60
2018-06-10T06:50:41.666Z,11.50
2018-06-10T06:51:41.773Z,11.60
2018-06-10T06:52:41.873Z,11.50
2018-06-10T06:53:41.976Z,11.80
2018-06-10T06:54:42.084Z,11.80
2018-06-10T06:55:43.336Z,11.80
2018-06-10T06:56:42.617Z,11.80
2018-06-10T06:57:42.621Z,12.20
2018-06-10T06:58:42.823Z,11.30
2018-06-10T06:59:42.831Z,11.60
2018-06-10T07:00:42.834Z,11.90
2018-06-10T07:01:42.941Z,11.70
2018-06-10T07:02:43.215Z,11.30
2018-06-10T07:03:43.059Z,11.70
2018-06-10T07:04:43.170Z,12.00
2018-06-10T07:05:43.666Z,11.50
2018-06-10T07:06:43.502Z,11.70
2018-06-10T07:07:43.524Z,11.70
2018-06-10T07:08:43.618Z,11.50
2018-06-10T07:09:43.703Z,11.80
2018-06-10T07:10:44.111Z,12.10
2018-06-10T07:11:44.054Z,11.60
2018-06-10T07:12:44.297Z,11.30
2018-06-10T07:13:44.261Z,11.70
2018-06-10T07:14:44.626Z,11.80
2018-06-10T07:15:44.266Z,11.50
2018-06-10T07:16:44.983Z,11.80
2018-06-10T07:17:44.540Z,11.10
2018-06-10T07:18:44.748Z,10.90
2018-06-10T07:19:44.636Z,11.00
2018-06-10T07:20:44.760Z,11.60
2018-06-10T07:21:44.986Z,10.80
2018-06-10T07:22:45.284Z,11.20
2018-06-10T07:23:45.457Z,12.00
2018-06-10T07:24:45.330Z,11.60
2018-06-10T07:25:45.238Z,12.50
2018-06-10T07:26:45.663Z,12.00
2018-06-10T07:27:45.625Z,11.80
2018-06-10T07:28:45.588Z,12.10
2018-06-10T07:29:46.260Z,12.00
2018-06-10T07:30:45.913Z,11.50
2018-06-10T07:31:45.924Z,11.10
2018-06-10T07:32:46.267Z,12.00
2018-06-10T07:33:46.226Z,11.60
2018-06-10T07:34:46.226Z,12.10
2018-06-10T07:35:46.528Z,11.50
2018-06-10T07:36:46.622Z,12.10
2018-06-10T07:37:46.652Z,11.50
2018-06-10T07:38:47.181Z,11.80
2018-06-10T07:39:47.077Z,11.00
2018-06-10T07:40:47.202Z,11.30
2018-06-10T07:41:47.295Z,10.60
2018-06-10T07:42:47.322Z,10.60
2018-06-10T07:43:47.411Z,10.80
2018-06-10T07:44:47.831Z,11.30
2018-06-10T07:45:47.651Z,11.40
2018-06-10T07:46:47.636Z,10.50
2018-06-10T07:47:47.744Z,10.50
2018-06-10T07:48:47.857Z,10.40
2018-06-10T07:49:48.065Z,10.30
2018-06-10T07:50:48.113Z,10.80
2018-06-10T07:51:48.484Z,10.90
2018-06-10T07:52:48.293Z,11.10
2018-06-10T07:53:48.431Z,10.50
2018-06-10T07:54:48.669Z,10.20
2018-06-10T07:55:48.620Z,10.40
2018-06-10T07:56:49.102Z,10.00
2018-06-10T07:57:49.074Z,9.90
2018-06-10T07:58:49.182Z,9.60
2018-06-10T07:59:49.106Z,10.20
2018-06-10T08:00:49.196Z,10.60
2018-06-10T08:01:49.331Z,10.80
2018-06-10T08:02:49.428Z,10.60
2018-06-10T08:03:49.622Z,10.50
2018-06-10T08:04:49.616Z,10.60
2018-06-10T08:05:49.705Z,10.20
2018-06-10T08:06:49.895Z,9.90
2018-06-10T08:07:50.272Z,9.50
2018-06-10T08:08:50.053Z,9.50
2018-06-10T08:09:50.029Z,9.70
2018-06-10T08:10:50.249Z,9.90
2018-06-10T08:11:50.634Z,9.60
2018-06-10T08:12:50.506Z,9.70
2018-06-10T08:13:50.663Z,9.40
2018-06-10T08:14:50.844Z,10.00
2018-06-10T08:15:50.865Z,9.60
2018-06-10T08:16:51.189Z,9.70
2018-06-10T08:17:51.116Z,9.60
2018-06-10T08:18:51.310Z,9.70
2018-06-10T08:19:51.229Z,10.70
2018-06-10T08:20:51.358Z,10.00
2018-06-10T08:21:51.428Z,9.50
2018-06-10T08:22:51.676Z,10.40
2018-06-10T08:23:51.668Z,11.30
2018-06-10T08:24:51.765Z,10.00
2018-06-10T08:25:51.949Z,11.50
2018-06-10T08:26:52.155Z,12.90
2018-06-10T08:27:52.210Z,13.60
2018-06-10T08:28:52.308Z,14.00
2018-06-10T08:29:52.459Z,13.50
2018-06-10T08:30:52.641Z,14.00
2018-06-10T08:31:52.679Z,14.50
2018-06-10T08:32:52.846Z,14.60
2018-06-10T08:33:52.880Z,14.00
2018-06-10T08:34:53.064Z,13.70
2018-06-10T08:35:53.043Z,14.00
2018-06-10T08:36:53.209Z,13.90
2018-06-10T08:37:53.262Z,14.10
2018-06-10T08:38:53.404Z,14.70
2018-06-10T08:39:53.515Z,14.00
2018-06-10T08:40:53.620Z,15.00
2018-06-10T08:41:53.929Z,15.30
2018-06-10T08:42:53.783Z,14.70
2018-06-10T08:43:53.934Z,15.70
2018-06-10T08:44:54.027Z,14.60
2018-06-10T08:45:54.149Z,15.30
2018-06-10T08:46:54.252Z,14.90
2018-06-10T08:47:54.348Z,15.20
2018-06-10T08:48:54.527Z,15.10
2018-06-10T08:49:54.497Z,15.00
2018-06-10T08:50:54.594Z,14.80
2018-06-10T08:51:54.704Z,14.30
2018-06-10T08:52:55.002Z,14.40
2018-06-10T08:53:54.899Z,14.50
2018-06-10T08:54:55.039Z,14.20
2018-06-10T08:55:55.210Z,13.50
2018-06-10T08:56:55.219Z,14.50
2018-06-10T08:57:55.311Z,14.40
2018-06-10T08:58:55.548Z,14.00
2018-06-10T08:59:55.535Z,14.30
2018-06-10T09:00:55.703Z,14.70
2018-06-10T09:01:55.783Z,14.00
2018-06-10T09:02:56.020Z,14.60
2018-06-10T09:03:56.019Z,15.00
2018-06-10T09:04:56.138Z,14.10
2018-06-10T09:05:56.650Z,14.50
2018-06-10T09:06:56.413Z,14.70
2018-06-10T09:07:56.542Z,14.20
2018-06-10T09:08:56.879Z,14.70
2018-06-10T09:09:56.788Z,14.60
2018-06-10T09:10:56.842Z,14.20
2018-06-10T09:11:56.985Z,14.00
2018-06-10T09:12:57.043Z,15.30
2018-06-10T09:13:57.272Z,14.10
2018-06-10T09:14:57.197Z,14.10
2018-06-10T09:15:57.334Z,13.80
2018-06-10T09:16:57.552Z,13.80
2018-06-10T09:17:57.585Z,14.00
2018-06-10T09:18:57.762Z,13.60
2018-06-10T09:19:57.770Z,12.80
2018-06-10T09:20:58.198Z,13.40
2018-06-10T09:21:57.938Z,13.70
2018-06-10T09:22:58.051Z,14.00
2018-06-10T09:23:58.267Z,13.40
2018-06-10T09:24:58.228Z,13.30
2018-06-10T09:25:58.337Z,12.70
2018-06-10T09:26:58.434Z,13.40
2018-06-10T09:27:58.643Z,13.40
2018-06-10T09:28:58.617Z,13.50
2018-06-10T09:29:58.714Z,12.20
2018-06-10T09:30:58.908Z,13.80
2018-06-10T09:31:58.892Z,13.40
2018-06-10T09:32:59.089Z,13.20
2018-06-10T09:33:59.151Z,13.90
2018-06-10T09:34:59.155Z,12.50
2018-06-10T09:35:59.283Z,12.90
2018-06-10T09:36:59.387Z,12.60
2018-06-10T09:37:59.492Z,12.90
2018-06-10T09:38:59.602Z,12.60
2018-06-10T09:39:59.706Z,13.00
2018-06-10T09:40:59.815Z,12.70
2018-06-10T09:41:59.972Z,12.80
2018-06-10T09:43:00.031Z,12.90
2018-06-10T09:44:00.131Z,12.70
2018-06-10T09:45:00.241Z,12.90
2018-06-10T09:46:00.358Z,12.30
2018-06-10T09:47:00.465Z,12.20
2018-06-10T09:48:00.573Z,12.10
2018-06-10T09:49:00.676Z,12.20
2018-06-10T09:50:00.781Z,12.10
2018-06-10T09:51:00.893Z,12.80
2018-06-10T09:52:01.002Z,12.30
2018-06-10T09:53:01.104Z,12.20
2018-06-10T09:54:01.203Z,12.20
2018-06-10T09:55:01.311Z,12.10
2018-06-10T09:56:01.417Z,12.50
2018-06-10T09:57:01.527Z,12.30
2018-06-10T09:58:01.629Z,12.80
2018-06-10T09:59:01.738Z,12.30
2018-06-10T10:00:01.845Z,12.40
2018-06-10T10:01:01.980Z,12.50
2018-06-10T10:02:02.081Z,13.60
2018-06-10T10:03:02.188Z,12.40
2018-06-10T10:04:02.296Z,12.70
2018-06-10T10:05:02.428Z,11.70
2018-06-10T10:06:02.537Z,10.90
2018-06-10T10:07:02.638Z,12.00
2018-06-10T10:08:02.760Z,12.00
2018-06-10T10:09:02.892Z,12.30
2018-06-10T10:10:03.003Z,12.30
2018-06-10T10:11:03.102Z,11.20
2018-06-10T10:12:03.212Z,12.20
2018-06-10T10:13:03.318Z,12.10
2018-06-10T10:14:03.426Z,11.90
2018-06-10T10:15:03.531Z,12.40
2018-06-10T10:16:03.639Z,12.30
2018-06-10T10:17:03.745Z,11.70
2018-06-10T10:18:03.849Z,11.50
2018-06-10T10:19:03.958Z,11.50
2018-06-10T10:20:04.064Z,11.90
2018-06-10T10:21:04.174Z,12.30
2018-06-10T10:22:04.281Z,12.30
2018-06-10T10:23:04.390Z,12.50
2018-06-10T10:24:04.541Z,12.50
2018-06-10T10:25:04.623Z,12.50
2018-06-10T10:26:04.730Z,12.40
2018-06-10T10:27:04.838Z,12.50
2018-06-10T10:28:04.949Z,12.50
2018-06-10T10:29:05.056Z,11.80
2018-06-10T10:30:05.168Z,12.10
2018-06-10T10:31:05.274Z,11.40
2018-06-10T10:32:05.368Z,12.30
2018-06-10T10:33:05.489Z,12.50
2018-06-10T10:34:05.601Z,12.10
2018-06-10T10:35:05.706Z,12.00
2018-06-10T10:36:05.810Z,11.80
2018-06-10T10:37:05.917Z,12.30
2018-06-10T10:38:06.025Z,11.80
2018-06-10T10:39:06.142Z,11.90
2018-06-10T10:40:06.247Z,11.70
2018-06-10T10:41:06.354Z,11.80
2018-06-10T10:42:06.461Z,11.20
2018-06-10T10:43:06.571Z,10.40
2018-06-10T10:44:06.679Z,10.30
2018-06-10T10:45:06.787Z,10.00
2018-06-10T10:46:06.895Z,10.40
2018-06-10T10:47:06.991Z,10.30
2018-06-10T10:48:07.113Z,11.10
2018-06-10T10:49:07.226Z,11.10
2018-06-10T10:50:07.327Z,10.20
2018-06-10T10:51:07.437Z,10.80
2018-06-10T10:52:07.545Z,10.60
2018-06-10T10:53:07.653Z,11.40
2018-06-10T10:54:07.767Z,11.30
2018-06-10T10:55:07.879Z,10.80
2018-06-10T10:56:08.004Z,10.30
2018-06-10T10:57:08.096Z,10.10
2018-06-10T10:58:08.203Z,9.60
2018-06-10T10:59:08.313Z,9.80
2018-06-10T11:00:08.420Z,9.90
2018-06-10T11:01:08.528Z,9.70
2018-06-10T11:02:08.639Z,9.90
2018-06-10T11:03:08.744Z,9.60
2018-06-10T11:04:08.852Z,9.90
2018-06-10T11:05:08.965Z,9.90
2018-06-10T11:06:09.076Z,9.80
2018-06-10T11:07:09.177Z,9.60
2018-06-10T11:08:09.311Z,9.40
2018-06-10T11:09:09.406Z,9.80
2018-06-10T11:10:09.508Z,9.40
2018-06-10T11:11:09.611Z,9.70
2018-06-10T11:12:09.721Z,9.60
2018-06-10T11:13:09.830Z,9.90
2018-06-10T11:14:09.938Z,9.90
2018-06-10T11:15:10.049Z,9.20
2018-06-10T11:16:10.155Z,9.10
2018-06-10T11:17:10.258Z,9.70
2018-06-10T11:18:10.379Z,9.10
2018-06-10T11:19:10.487Z,9.20
2018-06-10T11:20:10.596Z,8.90
2018-06-10T11:21:10.708Z,9.10
2018-06-10T11:22:10.814Z,9.20
2018-06-10T11:23:10.926Z,8.80
2018-06-10T11:24:11.032Z,9.30
2018-06-10T11:25:11.140Z,9.40
2018-06-10T11:26:11.254Z,9.50
2018-06-10T11:27:11.398Z,9.10
2018-06-10T11:28:11.466Z,8.60
2018-06-10T11:29:11.578Z,8.60
2018-06-10T11:30:11.686Z,8.80
2018-06-10T11:31:11.795Z,8.70
2018-06-10T11:32:11.902Z,8.70
2018-06-10T11:33:12.012Z,8.50
2018-06-10T11:34:12.112Z,8.80
2018-06-10T11:35:13.016Z,9.20
2018-06-10T11:36:12.368Z,8.50
2018-06-10T11:37:12.558Z,8.50
2018-06-10T11:38:13.017Z,8.60
2018-06-10T11:39:12.735Z,8.20
2018-06-10T11:40:12.880Z,8.30
2018-06-10T11:41:12.978Z,8.20
2018-06-10T11:42:13.229Z,8.40
2018-06-10T11:43:13.716Z,7.90
2018-06-10T11:44:13.384Z,8.50
2018-06-10T11:45:13.650Z,8.00
2018-06-10T11:46:13.428Z,8.20
2018-06-10T11:47:13.669Z,7.80
2018-06-10T11:48:13.921Z,7.70
2018-06-10T11:49:13.771Z,7.60
2018-06-10T11:50:13.867Z,8.20
2018-06-10T11:51:14.596Z,8.50
2018-06-10T11:52:14.444Z,9.10
2018-06-10T11:53:14.559Z,8.50
2018-06-10T11:54:14.433Z,9.10
2018-06-10T11:55:14.730Z,9.10
2018-06-10T11:56:14.860Z,8.20
2018-06-10T11:57:14.831Z,8.60
2018-06-10T11:58:15.381Z,8.80
2018-06-10T11:59:15.030Z,7.60
2018-06-10T12:00:15.329Z,8.10
2018-06-10T12:01:15.192Z,8.30
2018-06-10T12:02:15.344Z,8.60
2018-06-10T12:03:15.380Z,9.10
2018-06-10T12:04:15.836Z,8.90
2018-06-10T12:05:15.595Z,8.80
2018-06-10T12:06:15.722Z,8.80
2018-06-10T12:07:16.016Z,8.40
2018-06-10T12:08:16.098Z,8.10
2018-06-10T12:09:16.149Z,8.60
2018-06-10T12:10:16.596Z,8.80
2018-06-10T12:11:16.316Z,8.40
2018-06-10T12:12:16.530Z,8.80
2018-06-10T12:13:16.547Z,8.80
2018-06-10T12:14:16.795Z,8.50
2018-06-10T12:15:16.784Z,8.70
2018-06-10T12:16:17.250Z,8.70
2018-06-10T12:17:16.962Z,8.40
2018-06-10T12:18:16.987Z,8.90
2018-06-10T12:19:17.133Z,9.10
2018-06-10T12:20:17.249Z,8.00
2018-06-10T12:21:17.389Z,8.30
2018-06-10T12:22:17.725Z,7.80
2018-06-10T12:23:17.851Z,8.30
2018-06-10T12:24:17.641Z,7.80
2018-06-10T12:25:17.806Z,7.80
2018-06-10T12:26:17.914Z,7.60
2018-06-10T12:27:18.110Z,8.10
2018-06-10T12:28:18.219Z,7.50
2018-06-10T12:29:18.267Z,7.80
2018-06-10T12:30:18.381Z,8.20
2018-06-10T12:31:18.410Z,7.50
2018-06-10T12:32:18.505Z,6.90
2018-06-10T12:33:18.620Z,6.90
2018-06-10T12:34:18.768Z,6.80
2018-06-10T12:35:18.880Z,7.10
2018-06-10T12:36:19.049Z,6.90
2018-06-10T12:37:19.159Z,6.90
2018-06-10T12:38:19.152Z,7.20
2018-06-10T12:39:19.310Z,6.70
2018-06-10T12:40:19.413Z,7.00
2018-06-10T12:41:19.635Z,6.60
2018-06-10T12:42:19.692Z,6.70
2018-06-10T12:43:19.663Z,6.70
2018-06-10T12:44:19.778Z,6.40
2018-06-10T12:45:19.872Z,6.80
2018-06-10T12:46:20.020Z,6.80
2018-06-10T12:47:20.046Z,7.10
2018-06-10T12:48:20.218Z,7.20
2018-06-10T12:49:20.202Z,6.80
2018-06-10T12:50:20.285Z,6.50
2018-06-10T12:51:20.402Z,6.20
2018-06-10T12:52:20.563Z,6.00
2018-06-10T12:53:20.710Z,5.70
2018-06-10T12:54:20.811Z,6.00
2018-06-10T12:55:21.054Z,6.10
2018-06-10T12:56:21.133Z,5.90
2018-06-10T12:57:21.115Z,5.40
2018-06-10T12:58:21.230Z,5.40
2018-06-10T12:59:21.342Z,5.90
2018-06-10T13:00:21.532Z,5.80
2018-06-10T13:01:21.513Z,6.30
2018-06-10T13:02:21.627Z,6.00
2018-06-10T13:03:21.740Z,6.10